首页
METAR-TAF:

METAR-TAF

机场 :

Boscombe Down, 英格兰

纬度: 51-10N, 经度: 001-45W, 海拔: 124米

当前天气观测

该预报发布于44分钟前的22:50 UTC
风速14节,风向
温度 11°C
湿度 87%
气压 1007 hPa
小毛毛雨

METAR: EGDM 032250Z AUTO 01014KT //// -DZ BKN007/// SCT014/// 11/09 Q1007

时间: 00:34 (23:34 UTC)

预报

该预报发布于13小时和7分钟前的10:27 UTC
预报有效从03日的 12点(UTC)到 03日的 16点(UTC)
风速8节,风向北转东北
能见度10公里或以上
少量云层高于2500英尺
短暂存在
从 03日的 12点(UTC)到 03日的 16点(UTC)
散云层高于2000英尺
几率 30% :
短暂存在
从 03日的 12点(UTC)到 03日的 16点(UTC)
能見度: 5000
散云层高于1200英尺

TAF: EGDM 031027Z 0312/0316 02008KT 9999 FEW025 TEMPO 0312/0316 SCT020 PROB30 TEMPO 0312/0316 5000 RA SCT012

超过4000个机场的气象观测和天气预报(METAR&TAF报告)。

可查询的气象台以黄色和红色小点在地图上表示。

将鼠标移到小点上方,可查看气象台名称。

然后点击查看天气观测和预报。

如需切换地图:点击带黑十字的绿色按钮放大地图;点击带横线的绿色按钮缩小地图;或者点击绿色箭头查看邻近地区的地图。


METAR-TAF: